Huntington, MA (01050)

7:33 PM EDT on October 31, 2014 (GMT -0400)
Huntington, MA | Change Station
CLOSE
Current Station
Personal Weather Station
Location: Huntington, MA
Elevation: 1050 ft
Nearby Weather Stations

Elev 1050 ft 42.26 °N, 72.85 °W | Updated 2 minutes ago

Overcast
Overcast
44.9 °F
Feels Like 45 °F
N
0.0
Wind Variable Wind from ENE
Gusts 0.0 mph

Today
High -- | Low -- °F
--% Chance of Precip.
Yesterday
High -- | Low -- °F
Precip. -- in
7:23 AM 5:46 PM
First Quarter, 60% visible
Pressure 29.98 in
Visibility 10.0 miles
Clouds Overcast 3700 ft
Windchill 45 °F
Dew Point 39 °F
Humidity 79%
Rainfall 0.00 in
Snow Depth Not available.
UV 0 out of 12
Pollen .20 out of 12
Air Quality Not available.
Flu Activity Not available.
METAR KBAF 312253Z 01006KT 10SM OVC037 09/03 A2996 RMK AO2 SLP150 T00890033

More Conditions Fewer Conditions

Pressure 29.98 in
Visibility 10.0 miles
Clouds Overcast 3700 ft
Windchill 45 °F
Dew Point 39 °F
Humidity 79%
Rainfall 0.00 in
Snow Depth Not available.
UV 0 out of 12
Pollen .20 out of 12
Air Quality Not available.
Flu Activity Not available.
METAR KBAF 312253Z 01006KT 10SM OVC037 09/03 A2996 RMK AO2 SLP150 T00890033

More Conditions Fewer Conditions

10-Day Weather Forecast

Almanac

Astronomy

Oct. 31, 2014 Rise Set
Actual Time
Civil Twilight
Nautical Twilight
Astronomical Twilight
Moon
Length of Visible Light
Length of Day
Tomorrow will be .
, % of the Moon is Illuminated

Today's Extremes

State Highs State Lows

Community

WunderPhotos

Upload Photos

1,766,784 photos uploaded!

WunderBlogs® & News

Nearby

Air Quality

  Air Quality AQ Index Pollutant
Not available.

Snow Depth

Station Depth Elevation

Earthquake Activity

City Distance Mag. Time & Date
Minimum magnitude displayed is 2.5.

Coastal Water Temperatures

Place Temperature

Nearby Weather Stations